ADDS TAF Board (Experimental) INFO

IDs: Format: Expanded Condensed

Updated at: 1958 UTC 31 Oct 2014

KFLL - Ft Lauderdale-Hollyw, FL, US

Issued at 1933 UTC 31 Oct 2014
Time1953Z31/20Z31/21Z31/22Z31/23Z01/00Z01/01Z01/02Z01/03Z01/04Z01/05Z01/06Z01/07Z01/08Z
TypeOBSPRVLPRVLPRVLPRVLPRVLPRVLPRVLPRVLPRVLPRVLPRVLPRVLPRVL
VIS10>6>6>6>6>6>6>6>6>6>6>6>6>6
CIG25050250250250250----------------
CoverBKNBKNBKNBKNBKNBKNSKCSKCSKCSKCSKCSKCSKCSKC
FltCat--VFRVFRVFRVFRVFRVFRVFRVFRVFRVFRVFRVFRVFR
WX----------------------------
WDir290250280280280280290290290290290290290290
WSpd6101010101066666666
WGst----------------------------
R10/28
XWnd2-3222222222222
HWnd-6-9-10-10-10-10-6-6-6-6-6-6-6-6
Raw TAF
KFLL 311933Z 3120/0118 24012KT P6SM VCSH SCT040 SCT250
  FM311935 31010G20KT 4SM SHRA BKN030
  FM311945 25010KT P6SM BKN050
  FM312100 28010KT P6SM SCT035 BKN250
  FM010100 29006KT P6SM SKC
  FM011400 30010G20KT P6SM SKC


Raw METAR
KFLL 311953Z 29006KT 10SM FEW025 FEW095 BKN250 28/21 A2976 RMK AO2 PK WND 26032/1920 RAB20E37 SLP079 P0011 T02780211
KFLL 311928Z 31008G32KT 4SM R10L/3500VP6000FT RA FEW029 BKN039 BKN046 BKN250 26/22 A2977 RMK AO2 PK WND 26032/1920 RAB20 P0011 T02560217
KFLL 311926Z 31010G32KT 2 1/2SM R10L/3500VP6000FT +RA FEW029 BKN039 BKN046 BKN250 26/22 A2977 RMK AO2 PK WND 26032/1920 RAB20 P0011 T02560222
KFLL 311853Z 24010KT 10SM FEW041 BKN250 29/19 A2976 RMK AO2 SLP078 T02940189

TAF Board Legend

Hazard VFR MVFR IFR LIFR
Visibility (sm) >5 3≤X≤5 1≤X<3 <1
Ceiling (100 ft) >30 10≤X≤30 5≤X<10 <5
Wind Speed (kt) <10 10≤X<20 20≤X<30 ≥30
Wind Gust (kt) <15 15≤X<25 25≤X<35 ≥35
Weather No Wx Reported VCTS,-TS,-FZRA TS,FZRA +TS,+FZRA


Page loaded:  19:58 UTC  |   12:58 PM Pacific  |   01:58 PM Mountain  |   02:58 PM Central  |   03:58 PM Eastern

 

ADVISORIES

FORECASTS

FORECASTS

OBSERVATIONS

USER TOOLS

ABOUT US